sensor_id;sensor_type;location;lat;lon;timestamp;P1;durP1;ratioP1;P2;durP2;ratioP2
73980;SDS011;62348;51.412;5.436;2023-07-31T00:01:10;17.80;;;6.32;;
73980;SDS011;62348;51.412;5.436;2023-07-31T00:03:35;18.13;;;6.32;;
73980;SDS011;62348;51.412;5.436;2023-07-31T00:06:00;18.38;;;6.88;;
73980;SDS011;62348;51.412;5.436;2023-07-31T00:08:26;19.83;;;6.53;;
73980;SDS011;62348;51.412;5.436;2023-07-31T00:10:52;21.30;;;6.45;;
73980;SDS011;62348;51.412;5.436;2023-07-31T00:13:18;21.25;;;8.43;;
73980;SDS011;62348;51.412;5.436;2023-07-31T00:15:43;17.45;;;6.82;;
73980;SDS011;62348;51.412;5.436;2023-07-31T00:18:09;20.42;;;6.10;;
73980;SDS011;62348;51.412;5.436;2023-07-31T00:20:34;25.83;;;7.43;;
73980;SDS011;62348;51.412;5.436;2023-07-31T00:23:00;17.30;;;5.60;;
73980;SDS011;62348;51.412;5.436;2023-07-31T00:25:25;15.88;;;5.88;;
73980;SDS011;62348;51.412;5.436;2023-07-31T00:27:50;16.00;;;5.68;;
73980;SDS011;62348;51.412;5.436;2023-07-31T00:30:16;18.17;;;6.00;;
73980;SDS011;62348;51.412;5.436;2023-07-31T00:32:41;17.33;;;5.90;;
73980;SDS011;62348;51.412;5.436;2023-07-31T00:35:07;13.02;;;5.55;;
73980;SDS011;62348;51.412;5.436;2023-07-31T00:37:32;19.10;;;5.53;;
73980;SDS011;62348;51.412;5.436;2023-07-31T00:39:57;15.07;;;5.28;;
73980;SDS011;62348;51.412;5.436;2023-07-31T00:42:24;18.80;;;5.80;;
73980;SDS011;62348;51.412;5.436;2023-07-31T00:44:49;14.60;;;5.90;;
73980;SDS011;62348;51.412;5.436;2023-07-31T00:47:15;16.35;;;5.55;;
73980;SDS011;62348;51.412;5.436;2023-07-31T00:49:40;11.07;;;5.35;;
73980;SDS011;62348;51.412;5.436;2023-07-31T00:52:06;16.48;;;5.20;;
73980;SDS011;62348;51.412;5.436;2023-07-31T00:54:32;17.13;;;5.15;;
73980;SDS011;62348;51.412;5.436;2023-07-31T00:56:58;14.75;;;4.75;;
73980;SDS011;62348;51.412;5.436;2023-07-31T00:59:24;16.15;;;5.40;;
73980;SDS011;62348;51.412;5.436;2023-07-31T01:01:50;15.50;;;5.32;;
73980;SDS011;62348;51.412;5.436;2023-07-31T01:04:16;14.85;;;5.57;;
73980;SDS011;62348;51.412;5.436;2023-07-31T01:06:52;23.75;;;7.72;;
73980;SDS011;62348;51.412;5.436;2023-07-31T01:12:05;12.90;;;5.38;;
73980;SDS011;62348;51.412;5.436;2023-07-31T01:14:32;12.70;;;5.22;;
73980;SDS011;62348;51.412;5.436;2023-07-31T01:16:57;14.27;;;5.60;;
73980;SDS011;62348;51.412;5.436;2023-07-31T01:19:23;15.25;;;5.78;;
73980;SDS011;62348;51.412;5.436;2023-07-31T01:27:12;17.75;;;5.65;;
73980;SDS011;62348;51.412;5.436;2023-07-31T01:32:27;15.23;;;5.45;;
73980;SDS011;62348;51.412;5.436;2023-07-31T01:34:53;17.13;;;6.10;;
73980;SDS011;62348;51.412;5.436;2023-07-31T01:37:20;15.40;;;5.20;;
73980;SDS011;62348;51.412;5.436;2023-07-31T01:39:45;18.52;;;5.30;;
73980;SDS011;62348;51.412;5.436;2023-07-31T01:42:10;15.98;;;6.30;;
73980;SDS011;62348;51.412;5.436;2023-07-31T01:44:36;17.17;;;6.20;;
73980;SDS011;62348;51.412;5.436;2023-07-31T01:47:01;14.45;;;5.75;;
73980;SDS011;62348;51.412;5.436;2023-07-31T01:49:26;17.25;;;5.68;;
73980;SDS011;62348;51.412;5.436;2023-07-31T01:51:52;15.30;;;5.72;;
73980;SDS011;62348;51.412;5.436;2023-07-31T01:54:17;16.45;;;5.30;;
73980;SDS011;62348;51.412;5.436;2023-07-31T01:56:42;17.90;;;6.00;;
73980;SDS011;62348;51.412;5.436;2023-07-31T01:59:08;18.45;;;5.43;;
73980;SDS011;62348;51.412;5.436;2023-07-31T02:01:33;13.05;;;6.00;;
73980;SDS011;62348;51.412;5.436;2023-07-31T02:03:59;19.63;;;7.35;;
73980;SDS011;62348;51.412;5.436;2023-07-31T02:06:24;15.60;;;5.43;;
73980;SDS011;62348;51.412;5.436;2023-07-31T02:08:49;19.95;;;6.25;;
73980;SDS011;62348;51.412;5.436;2023-07-31T02:11:15;13.90;;;6.07;;
73980;SDS011;62348;51.412;5.436;2023-07-31T02:13:40;12.77;;;5.32;;
73980;SDS011;62348;51.412;5.436;2023-07-31T02:16:06;23.30;;;7.35;;
73980;SDS011;62348;51.412;5.436;2023-07-31T02:18:31;19.08;;;6.35;;
73980;SDS011;62348;51.412;5.436;2023-07-31T02:20:56;19.48;;;6.95;;
73980;SDS011;62348;51.412;5.436;2023-07-31T02:23:22;20.17;;;6.43;;
73980;SDS011;62348;51.412;5.436;2023-07-31T02:25:47;12.73;;;5.95;;
73980;SDS011;62348;51.412;5.436;2023-07-31T02:28:12;15.52;;;5.80;;
73980;SDS011;62348;51.412;5.436;2023-07-31T02:30:38;15.15;;;5.60;;
73980;SDS011;62348;51.412;5.436;2023-07-31T02:33:04;17.67;;;6.53;;
73980;SDS011;62348;51.412;5.436;2023-07-31T02:35:29;16.88;;;5.85;;
73980;SDS011;62348;51.412;5.436;2023-07-31T02:37:55;16.00;;;5.80;;
73980;SDS011;62348;51.412;5.436;2023-07-31T02:40:20;19.52;;;5.38;;
73980;SDS011;62348;51.412;5.436;2023-07-31T02:42:46;14.05;;;5.75;;
73980;SDS011;62348;51.412;5.436;2023-07-31T02:45:11;18.73;;;6.35;;
73980;SDS011;62348;51.412;5.436;2023-07-31T02:47:37;16.60;;;6.38;;
73980;SDS011;62348;51.412;5.436;2023-07-31T02:50:02;15.15;;;5.68;;
73980;SDS011;62348;51.412;5.436;2023-07-31T02:52:28;17.50;;;5.47;;
73980;SDS011;62348;51.412;5.436;2023-07-31T02:54:54;17.25;;;6.22;;
73980;SDS011;62348;51.412;5.436;2023-07-31T02:57:19;15.65;;;6.32;;
73980;SDS011;62348;51.412;5.436;2023-07-31T02:59:44;15.45;;;5.90;;
73980;SDS011;62348;51.412;5.436;2023-07-31T03:02:10;14.45;;;5.97;;
73980;SDS011;62348;51.412;5.436;2023-07-31T03:04:36;15.90;;;5.32;;
73980;SDS011;62348;51.412;5.436;2023-07-31T03:07:01;17.50;;;5.53;;
73980;SDS011;62348;51.412;5.436;2023-07-31T03:09:27;16.70;;;6.20;;
73980;SDS011;62348;51.412;5.436;2023-07-31T03:11:52;13.13;;;5.88;;
73980;SDS011;62348;51.412;5.436;2023-07-31T03:14:18;13.25;;;5.53;;
73980;SDS011;62348;51.412;5.436;2023-07-31T03:16:43;13.52;;;5.53;;
73980;SDS011;62348;51.412;5.436;2023-07-31T03:19:08;23.67;;;7.13;;
73980;SDS011;62348;51.412;5.436;2023-07-31T03:21:34;15.32;;;5.70;;
73980;SDS011;62348;51.412;5.436;2023-07-31T03:23:59;14.63;;;5.20;;
73980;SDS011;62348;51.412;5.436;2023-07-31T03:26:24;17.40;;;6.28;;
73980;SDS011;62348;51.412;5.436;2023-07-31T03:28:50;14.27;;;5.47;;
73980;SDS011;62348;51.412;5.436;2023-07-31T03:31:15;12.90;;;5.07;;
73980;SDS011;62348;51.412;5.436;2023-07-31T03:33:41;13.68;;;5.75;;
73980;SDS011;62348;51.412;5.436;2023-07-31T03:36:06;13.30;;;5.20;;
73980;SDS011;62348;51.412;5.436;2023-07-31T03:38:33;13.18;;;5.28;;
73980;SDS011;62348;51.412;5.436;2023-07-31T03:40:59;18.75;;;6.10;;
73980;SDS011;62348;51.412;5.436;2023-07-31T03:43:24;15.20;;;5.10;;
73980;SDS011;62348;51.412;5.436;2023-07-31T03:45:50;13.63;;;5.95;;
73980;SDS011;62348;51.412;5.436;2023-07-31T03:48:15;22.67;;;6.05;;
73980;SDS011;62348;51.412;5.436;2023-07-31T03:50:41;14.02;;;5.72;;
73980;SDS011;62348;51.412;5.436;2023-07-31T03:53:07;13.98;;;5.40;;
73980;SDS011;62348;51.412;5.436;2023-07-31T03:55:32;17.33;;;5.97;;
73980;SDS011;62348;51.412;5.436;2023-07-31T03:57:57;15.68;;;5.57;;
73980;SDS011;62348;51.412;5.436;2023-07-31T04:00:23;17.00;;;5.80;;
73980;SDS011;62348;51.412;5.436;2023-07-31T04:02:48;14.57;;;5.88;;
73980;SDS011;62348;51.412;5.436;2023-07-31T04:05:14;17.48;;;6.20;;
73980;SDS011;62348;51.412;5.436;2023-07-31T04:07:39;17.85;;;5.70;;
73980;SDS011;62348;51.412;5.436;2023-07-31T04:10:05;13.65;;;5.65;;
73980;SDS011;62348;51.412;5.436;2023-07-31T04:12:30;12.60;;;5.18;;
73980;SDS011;62348;51.412;5.436;2023-07-31T04:14:56;16.67;;;5.40;;
73980;SDS011;62348;51.412;5.436;2023-07-31T04:17:21;14.23;;;7.03;;
73980;SDS011;62348;51.412;5.436;2023-07-31T04:19:46;18.58;;;5.70;;
73980;SDS011;62348;51.412;5.436;2023-07-31T04:22:12;15.82;;;5.78;;
73980;SDS011;62348;51.412;5.436;2023-07-31T04:24:37;15.57;;;6.32;;
73980;SDS011;62348;51.412;5.436;2023-07-31T04:27:03;12.75;;;5.18;;
73980;SDS011;62348;51.412;5.436;2023-07-31T04:29:28;15.75;;;5.47;;
73980;SDS011;62348;51.412;5.436;2023-07-31T04:31:54;14.60;;;6.07;;
73980;SDS011;62348;51.412;5.436;2023-07-31T04:34:19;11.35;;;5.57;;
73980;SDS011;62348;51.412;5.436;2023-07-31T04:36:44;15.02;;;6.00;;
73980;SDS011;62348;51.412;5.436;2023-07-31T04:39:10;11.00;;;5.82;;
73980;SDS011;62348;51.412;5.436;2023-07-31T04:41:35;19.73;;;6.28;;
73980;SDS011;62348;51.412;5.436;2023-07-31T04:44:01;12.98;;;6.32;;
73980;SDS011;62348;51.412;5.436;2023-07-31T04:46:26;17.48;;;6.97;;
73980;SDS011;62348;51.412;5.436;2023-07-31T04:48:52;12.00;;;5.82;;
73980;SDS011;62348;51.412;5.436;2023-07-31T04:51:17;11.68;;;6.07;;
73980;SDS011;62348;51.412;5.436;2023-07-31T04:53:42;12.77;;;6.20;;
73980;SDS011;62348;51.412;5.436;2023-07-31T04:56:08;10.00;;;6.50;;
73980;SDS011;62348;51.412;5.436;2023-07-31T04:58:33;13.35;;;6.07;;
73980;SDS011;62348;51.412;5.436;2023-07-31T05:00:58;15.00;;;6.57;;
73980;SDS011;62348;51.412;5.436;2023-07-31T05:03:24;17.80;;;6.45;;
73980;SDS011;62348;51.412;5.436;2023-07-31T05:05:49;11.93;;;5.68;;
73980;SDS011;62348;51.412;5.436;2023-07-31T05:08:15;14.70;;;6.00;;
73980;SDS011;62348;51.412;5.436;2023-07-31T05:10:42;11.77;;;5.40;;
73980;SDS011;62348;51.412;5.436;2023-07-31T05:13:08;9.88;;;5.50;;
73980;SDS011;62348;51.412;5.436;2023-07-31T05:15:33;10.55;;;5.30;;
73980;SDS011;62348;51.412;5.436;2023-07-31T05:17:58;13.15;;;5.13;;
73980;SDS011;62348;51.412;5.436;2023-07-31T05:20:24;10.55;;;5.57;;
73980;SDS011;62348;51.412;5.436;2023-07-31T05:22:50;7.72;;;5.30;;
73980;SDS011;62348;51.412;5.436;2023-07-31T05:25:16;9.10;;;5.15;;
73980;SDS011;62348;51.412;5.436;2023-07-31T05:27:41;8.10;;;4.80;;
73980;SDS011;62348;51.412;5.436;2023-07-31T05:30:06;9.63;;;5.10;;
73980;SDS011;62348;51.412;5.436;2023-07-31T05:32:32;8.90;;;4.90;;
73980;SDS011;62348;51.412;5.436;2023-07-31T05:34:58;8.88;;;4.70;;
73980;SDS011;62348;51.412;5.436;2023-07-31T05:37:23;9.40;;;4.60;;
73980;SDS011;62348;51.412;5.436;2023-07-31T05:39:49;10.65;;;4.95;;
73980;SDS011;62348;51.412;5.436;2023-07-31T05:42:14;8.32;;;5.93;;
73980;SDS011;62348;51.412;5.436;2023-07-31T05:44:40;9.55;;;5.32;;
73980;SDS011;62348;51.412;5.436;2023-07-31T05:47:05;9.50;;;5.32;;
73980;SDS011;62348;51.412;5.436;2023-07-31T05:49:31;5.80;;;4.55;;
73980;SDS011;62348;51.412;5.436;2023-07-31T05:51:56;7.53;;;5.53;;
73980;SDS011;62348;51.412;5.436;2023-07-31T05:54:21;10.32;;;5.03;;
73980;SDS011;62348;51.412;5.436;2023-07-31T05:56:47;7.15;;;4.55;;
73980;SDS011;62348;51.412;5.436;2023-07-31T05:59:12;6.78;;;5.03;;
73980;SDS011;62348;51.412;5.436;2023-07-31T06:01:38;6.30;;;4.40;;
73980;SDS011;62348;51.412;5.436;2023-07-31T06:04:04;8.73;;;4.57;;
73980;SDS011;62348;51.412;5.436;2023-07-31T06:06:29;7.35;;;4.82;;
73980;SDS011;62348;51.412;5.436;2023-07-31T06:08:55;8.93;;;5.43;;
73980;SDS011;62348;51.412;5.436;2023-07-31T06:11:20;8.00;;;4.47;;
73980;SDS011;62348;51.412;5.436;2023-07-31T06:13:46;8.15;;;4.80;;
73980;SDS011;62348;51.412;5.436;2023-07-31T06:16:13;7.20;;;4.43;;
73980;SDS011;62348;51.412;5.436;2023-07-31T06:18:39;8.30;;;5.15;;
73980;SDS011;62348;51.412;5.436;2023-07-31T06:21:04;6.95;;;5.13;;
73980;SDS011;62348;51.412;5.436;2023-07-31T06:23:30;7.40;;;4.95;;
73980;SDS011;62348;51.412;5.436;2023-07-31T06:25:56;9.07;;;5.10;;
73980;SDS011;62348;51.412;5.436;2023-07-31T06:28:23;9.05;;;5.60;;
73980;SDS011;62348;51.412;5.436;2023-07-31T06:30:53;6.35;;;5.10;;
73980;SDS011;62348;51.412;5.436;2023-07-31T06:33:19;8.70;;;4.85;;
73980;SDS011;62348;51.412;5.436;2023-07-31T06:35:44;8.05;;;5.45;;
73980;SDS011;62348;51.412;5.436;2023-07-31T06:38:10;7.05;;;4.88;;
73980;SDS011;62348;51.412;5.436;2023-07-31T06:40:36;7.93;;;4.90;;
73980;SDS011;62348;51.412;5.436;2023-07-31T06:43:01;7.85;;;4.82;;
73980;SDS011;62348;51.412;5.436;2023-07-31T06:45:32;6.15;;;4.63;;
73980;SDS011;62348;51.412;5.436;2023-07-31T06:48:01;7.65;;;4.63;;
73980;SDS011;62348;51.412;5.436;2023-07-31T06:50:30;9.93;;;4.18;;
73980;SDS011;62348;51.412;5.436;2023-07-31T06:52:56;8.43;;;4.18;;
73980;SDS011;62348;51.412;5.436;2023-07-31T06:55:22;4.85;;;4.28;;
73980;SDS011;62348;51.412;5.436;2023-07-31T06:57:48;7.03;;;4.85;;
73980;SDS011;62348;51.412;5.436;2023-07-31T07:00:15;5.82;;;4.15;;
73980;SDS011;62348;51.412;5.436;2023-07-31T07:02:41;5.75;;;4.70;;
73980;SDS011;62348;51.412;5.436;2023-07-31T07:05:07;5.13;;;4.07;;
73980;SDS011;62348;51.412;5.436;2023-07-31T07:07:33;6.90;;;4.40;;
73980;SDS011;62348;51.412;5.436;2023-07-31T07:09:59;6.50;;;4.70;;
73980;SDS011;62348;51.412;5.436;2023-07-31T07:12:25;7.18;;;4.55;;
73980;SDS011;62348;51.412;5.436;2023-07-31T07:14:50;8.98;;;4.78;;
73980;SDS011;62348;51.412;5.436;2023-07-31T07:17:18;9.10;;;3.92;;
73980;SDS011;62348;51.412;5.436;2023-07-31T07:19:43;5.53;;;4.07;;
73980;SDS011;62348;51.412;5.436;2023-07-31T07:22:10;5.30;;;4.00;;
73980;SDS011;62348;51.412;5.436;2023-07-31T07:24:36;6.55;;;4.65;;
73980;SDS011;62348;51.412;5.436;2023-07-31T07:27:02;6.35;;;4.40;;
73980;SDS011;62348;51.412;5.436;2023-07-31T07:29:27;5.30;;;4.20;;
73980;SDS011;62348;51.412;5.436;2023-07-31T07:31:53;5.40;;;4.30;;
73980;SDS011;62348;51.412;5.436;2023-07-31T07:34:18;5.88;;;4.47;;
73980;SDS011;62348;51.412;5.436;2023-07-31T07:36:43;5.90;;;4.40;;
73980;SDS011;62348;51.412;5.436;2023-07-31T07:39:10;6.57;;;3.95;;
73980;SDS011;62348;51.412;5.436;2023-07-31T07:41:36;7.65;;;4.32;;
73980;SDS011;62348;51.412;5.436;2023-07-31T07:44:01;8.23;;;4.90;;
73980;SDS011;62348;51.412;5.436;2023-07-31T07:46:27;6.28;;;4.82;;
73980;SDS011;62348;51.412;5.436;2023-07-31T07:48:52;11.23;;;5.53;;
73980;SDS011;62348;51.412;5.436;2023-07-31T07:51:17;9.85;;;4.93;;
73980;SDS011;62348;51.412;5.436;2023-07-31T07:53:43;9.50;;;5.55;;
73980;SDS011;62348;51.412;5.436;2023-07-31T07:56:08;8.25;;;5.15;;
73980;SDS011;62348;51.412;5.436;2023-07-31T07:58:33;12.27;;;6.22;;
73980;SDS011;62348;51.412;5.436;2023-07-31T08:00:59;8.45;;;5.32;;
73980;SDS011;62348;51.412;5.436;2023-07-31T08:03:24;8.55;;;5.32;;
73980;SDS011;62348;51.412;5.436;2023-07-31T08:05:50;10.82;;;5.65;;
73980;SDS011;62348;51.412;5.436;2023-07-31T08:08:15;10.55;;;6.38;;
73980;SDS011;62348;51.412;5.436;2023-07-31T08:10:41;9.68;;;5.80;;
73980;SDS011;62348;51.412;5.436;2023-07-31T08:13:08;9.00;;;5.68;;
73980;SDS011;62348;51.412;5.436;2023-07-31T08:15:35;9.07;;;6.32;;
73980;SDS011;62348;51.412;5.436;2023-07-31T08:18:00;8.02;;;5.78;;
73980;SDS011;62348;51.412;5.436;2023-07-31T08:20:26;11.43;;;5.93;;
73980;SDS011;62348;51.412;5.436;2023-07-31T08:22:51;8.18;;;5.70;;
73980;SDS011;62348;51.412;5.436;2023-07-31T08:25:18;8.85;;;5.97;;
73980;SDS011;62348;51.412;5.436;2023-07-31T08:27:43;8.95;;;5.32;;
73980;SDS011;62348;51.412;5.436;2023-07-31T08:30:09;9.57;;;5.60;;
73980;SDS011;62348;51.412;5.436;2023-07-31T08:32:35;8.90;;;5.38;;
73980;SDS011;62348;51.412;5.436;2023-07-31T08:35:01;9.55;;;5.15;;
73980;SDS011;62348;51.412;5.436;2023-07-31T08:37:27;8.48;;;5.28;;
73980;SDS011;62348;51.412;5.436;2023-07-31T08:39:52;8.40;;;5.57;;
73980;SDS011;62348;51.412;5.436;2023-07-31T08:42:19;9.43;;;5.13;;
73980;SDS011;62348;51.412;5.436;2023-07-31T08:44:45;6.68;;;4.80;;
73980;SDS011;62348;51.412;5.436;2023-07-31T08:47:11;11.10;;;5.60;;
73980;SDS011;62348;51.412;5.436;2023-07-31T08:49:37;8.23;;;5.90;;
73980;SDS011;62348;51.412;5.436;2023-07-31T08:52:03;11.70;;;5.63;;
73980;SDS011;62348;51.412;5.436;2023-07-31T08:54:29;10.70;;;5.05;;
73980;SDS011;62348;51.412;5.436;2023-07-31T08:56:57;6.18;;;5.05;;
73980;SDS011;62348;51.412;5.436;2023-07-31T08:59:24;8.45;;;5.53;;
73980;SDS011;62348;51.412;5.436;2023-07-31T09:01:53;7.78;;;5.15;;
73980;SDS011;62348;51.412;5.436;2023-07-31T09:04:21;10.80;;;5.88;;
73980;SDS011;62348;51.412;5.436;2023-07-31T09:06:48;11.00;;;5.97;;
73980;SDS011;62348;51.412;5.436;2023-07-31T09:09:15;7.68;;;5.05;;
73980;SDS011;62348;51.412;5.436;2023-07-31T09:11:41;9.43;;;5.22;;
73980;SDS011;62348;51.412;5.436;2023-07-31T09:14:08;10.77;;;5.97;;
73980;SDS011;62348;51.412;5.436;2023-07-31T09:16:34;7.57;;;5.47;;
73980;SDS011;62348;51.412;5.436;2023-07-31T09:19:00;9.07;;;5.05;;
73980;SDS011;62348;51.412;5.436;2023-07-31T09:21:30;9.40;;;5.43;;
73980;SDS011;62348;51.412;5.436;2023-07-31T09:23:55;6.93;;;5.13;;
73980;SDS011;62348;51.412;5.436;2023-07-31T09:26:34;12.73;;;5.72;;
73980;SDS011;62348;51.412;5.436;2023-07-31T09:29:01;9.80;;;5.72;;
73980;SDS011;62348;51.412;5.436;2023-07-31T09:31:32;12.57;;;5.80;;
73980;SDS011;62348;51.412;5.436;2023-07-31T09:34:04;9.00;;;5.05;;
73980;SDS011;62348;51.412;5.436;2023-07-31T09:36:29;11.00;;;5.80;;
73980;SDS011;62348;51.412;5.436;2023-07-31T09:39:02;8.55;;;5.18;;
73980;SDS011;62348;51.412;5.436;2023-07-31T09:41:29;9.82;;;5.13;;
73980;SDS011;62348;51.412;5.436;2023-07-31T09:43:55;10.07;;;5.15;;
73980;SDS011;62348;51.412;5.436;2023-07-31T09:46:20;8.88;;;5.10;;
73980;SDS011;62348;51.412;5.436;2023-07-31T09:48:46;12.45;;;5.78;;
73980;SDS011;62348;51.412;5.436;2023-07-31T09:51:12;7.95;;;5.25;;
73980;SDS011;62348;51.412;5.436;2023-07-31T09:53:37;10.07;;;5.00;;
73980;SDS011;62348;51.412;5.436;2023-07-31T09:56:03;10.68;;;5.15;;
73980;SDS011;62348;51.412;5.436;2023-07-31T09:58:29;5.88;;;4.80;;
73980;SDS011;62348;51.412;5.436;2023-07-31T10:01:00;7.28;;;4.85;;
73980;SDS011;62348;51.412;5.436;2023-07-31T10:03:26;6.93;;;4.57;;
73980;SDS011;62348;51.412;5.436;2023-07-31T10:05:55;14.85;;;4.97;;
73980;SDS011;62348;51.412;5.436;2023-07-31T10:08:22;6.50;;;4.25;;
73980;SDS011;62348;51.412;5.436;2023-07-31T10:10:54;8.13;;;4.60;;
73980;SDS011;62348;51.412;5.436;2023-07-31T10:13:23;7.13;;;4.30;;
73980;SDS011;62348;51.412;5.436;2023-07-31T10:15:50;6.15;;;4.20;;
73980;SDS011;62348;51.412;5.436;2023-07-31T10:18:16;6.70;;;4.53;;
73980;SDS011;62348;51.412;5.436;2023-07-31T10:20:43;6.63;;;3.80;;
73980;SDS011;62348;51.412;5.436;2023-07-31T10:23:10;8.43;;;4.40;;
73980;SDS011;62348;51.412;5.436;2023-07-31T10:25:36;10.38;;;4.65;;
73980;SDS011;62348;51.412;5.436;2023-07-31T10:28:03;8.00;;;4.32;;
73980;SDS011;62348;51.412;5.436;2023-07-31T10:30:32;6.93;;;3.80;;
73980;SDS011;62348;51.412;5.436;2023-07-31T10:33:00;7.18;;;4.63;;
73980;SDS011;62348;51.412;5.436;2023-07-31T10:35:27;8.50;;;3.88;;
73980;SDS011;62348;51.412;5.436;2023-07-31T10:37:53;10.27;;;4.10;;
73980;SDS011;62348;51.412;5.436;2023-07-31T10:40:19;7.50;;;4.55;;
73980;SDS011;62348;51.412;5.436;2023-07-31T10:42:52;5.95;;;4.18;;
73980;SDS011;62348;51.412;5.436;2023-07-31T10:45:30;8.30;;;4.78;;
73980;SDS011;62348;51.412;5.436;2023-07-31T10:48:00;6.65;;;4.07;;
73980;SDS011;62348;51.412;5.436;2023-07-31T10:50:37;7.60;;;4.10;;
73980;SDS011;62348;51.412;5.436;2023-07-31T10:53:04;7.22;;;4.28;;
73980;SDS011;62348;51.412;5.436;2023-07-31T10:55:41;6.47;;;3.72;;
73980;SDS011;62348;51.412;5.436;2023-07-31T10:58:12;10.18;;;4.60;;
73980;SDS011;62348;51.412;5.436;2023-07-31T11:00:42;7.05;;;4.25;;
73980;SDS011;62348;51.412;5.436;2023-07-31T11:03:16;10.80;;;5.07;;
73980;SDS011;62348;51.412;5.436;2023-07-31T11:08:17;7.60;;;4.10;;
73980;SDS011;62348;51.412;5.436;2023-07-31T11:11:12;9.70;;;4.10;;
73980;SDS011;62348;51.412;5.436;2023-07-31T11:13:50;5.47;;;4.10;;
73980;SDS011;62348;51.412;5.436;2023-07-31T11:16:18;5.38;;;4.45;;
73980;SDS011;62348;51.412;5.436;2023-07-31T11:18:47;7.93;;;4.38;;
73980;SDS011;62348;51.412;5.436;2023-07-31T11:21:21;6.57;;;3.90;;
73980;SDS011;62348;51.412;5.436;2023-07-31T11:23:48;7.30;;;3.92;;
73980;SDS011;62348;51.412;5.436;2023-07-31T11:26:18;8.35;;;4.47;;
73980;SDS011;62348;51.412;5.436;2023-07-31T11:28:46;8.85;;;3.90;;
73980;SDS011;62348;51.412;5.436;2023-07-31T11:31:12;6.10;;;3.75;;
73980;SDS011;62348;51.412;5.436;2023-07-31T11:33:38;9.30;;;4.38;;
73980;SDS011;62348;51.412;5.436;2023-07-31T11:36:03;8.18;;;3.65;;
73980;SDS011;62348;51.412;5.436;2023-07-31T11:41:02;8.77;;;3.47;;
73980;SDS011;62348;51.412;5.436;2023-07-31T11:43:29;7.65;;;3.53;;
73980;SDS011;62348;51.412;5.436;2023-07-31T11:45:56;6.80;;;3.55;;
73980;SDS011;62348;51.412;5.436;2023-07-31T11:48:26;5.97;;;3.10;;
73980;SDS011;62348;51.412;5.436;2023-07-31T11:50:58;6.85;;;3.47;;
73980;SDS011;62348;51.412;5.436;2023-07-31T11:56:19;4.93;;;3.70;;
73980;SDS011;62348;51.412;5.436;2023-07-31T11:58:47;4.57;;;3.13;;
73980;SDS011;62348;51.412;5.436;2023-07-31T12:01:15;6.60;;;3.45;;
73980;SDS011;62348;51.412;5.436;2023-07-31T12:03:42;6.28;;;3.60;;
73980;SDS011;62348;51.412;5.436;2023-07-31T12:06:08;5.70;;;4.10;;
73980;SDS011;62348;51.412;5.436;2023-07-31T12:08:33;5.50;;;3.83;;
73980;SDS011;62348;51.412;5.436;2023-07-31T12:11:06;5.63;;;4.15;;
73980;SDS011;62348;51.412;5.436;2023-07-31T12:13:34;7.28;;;3.67;;
73980;SDS011;62348;51.412;5.436;2023-07-31T12:16:01;8.73;;;4.00;;
73980;SDS011;62348;51.412;5.436;2023-07-31T12:18:30;5.72;;;4.25;;
73980;SDS011;62348;51.412;5.436;2023-07-31T12:21:00;11.85;;;4.07;;
73980;SDS011;62348;51.412;5.436;2023-07-31T12:23:26;7.55;;;4.45;;
73980;SDS011;62348;51.412;5.436;2023-07-31T12:26:09;5.70;;;3.70;;
73980;SDS011;62348;51.412;5.436;2023-07-31T12:28:37;7.78;;;4.50;;
73980;SDS011;62348;51.412;5.436;2023-07-31T12:31:06;8.93;;;4.65;;
73980;SDS011;62348;51.412;5.436;2023-07-31T12:33:34;7.68;;;4.45;;
73980;SDS011;62348;51.412;5.436;2023-07-31T12:36:01;7.60;;;3.95;;
73980;SDS011;62348;51.412;5.436;2023-07-31T12:38:28;8.27;;;4.95;;
73980;SDS011;62348;51.412;5.436;2023-07-31T12:40:53;8.88;;;4.43;;
73980;SDS011;62348;51.412;5.436;2023-07-31T12:43:19;7.47;;;4.85;;
73980;SDS011;62348;51.412;5.436;2023-07-31T12:45:44;8.35;;;5.03;;
73980;SDS011;62348;51.412;5.436;2023-07-31T12:48:10;9.77;;;5.25;;
73980;SDS011;62348;51.412;5.436;2023-07-31T12:50:35;9.35;;;4.95;;
73980;SDS011;62348;51.412;5.436;2023-07-31T12:53:01;9.48;;;5.43;;
73980;SDS011;62348;51.412;5.436;2023-07-31T12:55:28;15.80;;;5.75;;
73980;SDS011;62348;51.412;5.436;2023-07-31T12:57:54;8.55;;;5.68;;
73980;SDS011;62348;51.412;5.436;2023-07-31T13:00:19;8.98;;;5.18;;
73980;SDS011;62348;51.412;5.436;2023-07-31T13:02:44;9.73;;;5.95;;
73980;SDS011;62348;51.412;5.436;2023-07-31T13:05:10;8.63;;;5.20;;
73980;SDS011;62348;51.412;5.436;2023-07-31T13:07:35;12.15;;;5.90;;
73980;SDS011;62348;51.412;5.436;2023-07-31T13:10:01;10.30;;;4.80;;
73980;SDS011;62348;51.412;5.436;2023-07-31T13:12:26;11.70;;;4.97;;
73980;SDS011;62348;51.412;5.436;2023-07-31T13:14:52;10.02;;;5.10;;
73980;SDS011;62348;51.412;5.436;2023-07-31T13:17:17;7.53;;;4.70;;
73980;SDS011;62348;51.412;5.436;2023-07-31T13:19:43;8.55;;;4.80;;
73980;SDS011;62348;51.412;5.436;2023-07-31T13:22:08;8.85;;;4.82;;
73980;SDS011;62348;51.412;5.436;2023-07-31T13:24:34;10.52;;;4.78;;
73980;SDS011;62348;51.412;5.436;2023-07-31T13:26:59;11.10;;;5.40;;
73980;SDS011;62348;51.412;5.436;2023-07-31T13:29:25;12.07;;;4.70;;
73980;SDS011;62348;51.412;5.436;2023-07-31T13:31:51;9.85;;;6.47;;
73980;SDS011;62348;51.412;5.436;2023-07-31T13:34:17;9.85;;;5.80;;
73980;SDS011;62348;51.412;5.436;2023-07-31T13:36:43;11.15;;;5.35;;
73980;SDS011;62348;51.412;5.436;2023-07-31T13:39:08;10.40;;;5.03;;
73980;SDS011;62348;51.412;5.436;2023-07-31T13:41:33;9.77;;;5.22;;
73980;SDS011;62348;51.412;5.436;2023-07-31T13:44:00;12.05;;;5.57;;
73980;SDS011;62348;51.412;5.436;2023-07-31T13:46:25;8.57;;;5.30;;
73980;SDS011;62348;51.412;5.436;2023-07-31T13:48:51;8.85;;;6.13;;
73980;SDS011;62348;51.412;5.436;2023-07-31T13:51:19;7.95;;;5.90;;
73980;SDS011;62348;51.412;5.436;2023-07-31T13:53:45;12.23;;;5.53;;
73980;SDS011;62348;51.412;5.436;2023-07-31T13:56:10;13.52;;;6.32;;
73980;SDS011;62348;51.412;5.436;2023-07-31T13:58:36;9.27;;;5.15;;
73980;SDS011;62348;51.412;5.436;2023-07-31T14:01:01;10.13;;;5.45;;
73980;SDS011;62348;51.412;5.436;2023-07-31T14:03:26;9.25;;;4.85;;
73980;SDS011;62348;51.412;5.436;2023-07-31T14:05:52;11.15;;;5.50;;
73980;SDS011;62348;51.412;5.436;2023-07-31T14:08:17;15.63;;;5.90;;
73980;SDS011;62348;51.412;5.436;2023-07-31T14:10:43;9.18;;;5.53;;
73980;SDS011;62348;51.412;5.436;2023-07-31T14:13:08;10.75;;;6.22;;
73980;SDS011;62348;51.412;5.436;2023-07-31T14:15:33;12.60;;;5.40;;
73980;SDS011;62348;51.412;5.436;2023-07-31T14:18:00;8.82;;;5.28;;
73980;SDS011;62348;51.412;5.436;2023-07-31T14:20:26;9.35;;;5.93;;
73980;SDS011;62348;51.412;5.436;2023-07-31T14:22:52;12.27;;;5.93;;
73980;SDS011;62348;51.412;5.436;2023-07-31T14:25:17;10.75;;;5.30;;
73980;SDS011;62348;51.412;5.436;2023-07-31T14:27:42;14.38;;;5.15;;
73980;SDS011;62348;51.412;5.436;2023-07-31T14:30:08;8.10;;;5.60;;
73980;SDS011;62348;51.412;5.436;2023-07-31T14:32:34;7.55;;;4.30;;
73980;SDS011;62348;51.412;5.436;2023-07-31T14:34:59;11.45;;;4.75;;
73980;SDS011;62348;51.412;5.436;2023-07-31T14:37:25;11.20;;;4.72;;
73980;SDS011;62348;51.412;5.436;2023-07-31T14:39:52;10.63;;;4.70;;
73980;SDS011;62348;51.412;5.436;2023-07-31T14:42:17;6.35;;;3.92;;
73980;SDS011;62348;51.412;5.436;2023-07-31T14:44:44;8.32;;;4.35;;
73980;SDS011;62348;51.412;5.436;2023-07-31T14:47:09;5.57;;;3.63;;
73980;SDS011;62348;51.412;5.436;2023-07-31T14:49:35;11.48;;;4.38;;
73980;SDS011;62348;51.412;5.436;2023-07-31T14:52:00;6.32;;;3.53;;
73980;SDS011;62348;51.412;5.436;2023-07-31T14:54:25;7.43;;;4.38;;